Yangon, Burma
Current Conditions -  °F | °C
As of 2:00 PM on Friday 24 Oct 2014 (Local Time) from VYYY Reporting Station
Scattered Clouds Scattered Clouds  
Wind Chill: 32°   Ceiling: Unl
Heat Index: 39°   Visibility: 6mi
Dew Point: 25°   Wind: 2mph
Humidity: 66%   Direction: 310°NW
Pressure: 29.77"   Gusts: NA
Location:  16.79°N, 96.15°E
Report Text: VYYY 240800Z 31002KT 9000 SCT018 32/25 Q1008 NOSIG
Loading
Personal Weather Stations






























Interactive Weather Map New forecast layout! Learn more

10-Day Weather Forecast

Advertisements
Track Severe Weather on mobile